createdAt,value
2023-04-15T00:01:58.982Z,78.70
2023-04-15T00:04:26.936Z,78.60
2023-04-15T00:06:54.735Z,78.70
2023-04-15T00:09:22.148Z,78.90
2023-04-15T00:11:50.566Z,78.60
2023-04-15T00:14:17.741Z,78.70
2023-04-15T00:16:44.978Z,78.40
2023-04-15T00:19:13.525Z,78.20
2023-04-15T00:21:40.741Z,78.20
2023-04-15T00:24:08.352Z,78.00
2023-04-15T00:26:35.693Z,78.30
2023-04-15T00:29:02.874Z,78.00
2023-04-15T00:31:31.347Z,78.10
2023-04-15T00:33:59.665Z,78.50
2023-04-15T00:36:28.309Z,78.50
2023-04-15T00:38:55.652Z,78.30
2023-04-15T00:41:23.123Z,78.20
2023-04-15T00:43:50.370Z,78.90
2023-04-15T00:46:19.406Z,78.70
2023-04-15T00:48:47.943Z,79.00
2023-04-15T00:51:15.112Z,78.60
2023-04-15T00:53:43.713Z,78.40
2023-04-15T00:56:10.935Z,78.40
2023-04-15T00:58:38.291Z,78.40
2023-04-15T01:01:05.768Z,78.00
2023-04-15T01:03:33.572Z,78.20
2023-04-15T01:06:03.589Z,78.30
2023-04-15T01:08:31.726Z,78.10
2023-04-15T01:11:03.410Z,78.30
2023-04-15T01:13:31.215Z,78.40
2023-04-15T01:15:58.563Z,78.30
2023-04-15T01:18:26.621Z,78.50
2023-04-15T01:20:53.944Z,78.40
2023-04-15T01:23:24.726Z,78.20
2023-04-15T01:25:53.768Z,78.00
2023-04-15T01:28:21.285Z,78.10
2023-04-15T01:30:48.543Z,77.80
2023-04-15T01:33:16.089Z,77.70
2023-04-15T01:35:44.736Z,77.60
2023-04-15T01:38:13.582Z,77.80
2023-04-15T01:40:40.881Z,77.80
2023-04-15T01:43:09.418Z,77.80
2023-04-15T01:45:36.984Z,77.50
2023-04-15T01:48:05.072Z,77.40
2023-04-15T01:50:32.558Z,77.50
2023-04-15T01:52:59.748Z,77.40
2023-04-15T01:55:27.025Z,77.50
2023-04-15T01:57:54.259Z,77.60
2023-04-15T02:00:23.270Z,77.50
2023-04-15T02:02:50.613Z,77.80
2023-04-15T02:05:17.936Z,77.70
2023-04-15T02:07:48.498Z,77.80
2023-04-15T02:10:16.669Z,77.60
2023-04-15T02:12:43.993Z,77.70
2023-04-15T02:15:11.899Z,77.60
2023-04-15T02:17:40.695Z,77.80
2023-04-15T02:20:10.525Z,78.00
2023-04-15T02:22:38.194Z,77.80
2023-04-15T02:25:06.999Z,77.80
2023-04-15T02:27:34.303Z,77.80
2023-04-15T02:30:01.620Z,77.80
2023-04-15T02:32:29.184Z,77.50
2023-04-15T02:35:02.799Z,77.60
2023-04-15T02:37:31.730Z,77.50
2023-04-15T02:39:59.071Z,77.80
2023-04-15T02:42:28.713Z,77.90
2023-04-15T02:44:56.356Z,77.80
2023-04-15T02:47:28.922Z,77.80
2023-04-15T02:49:58.626Z,78.10
2023-04-15T02:52:25.874Z,78.10
2023-04-15T02:54:54.598Z,78.20
2023-04-15T02:57:21.817Z,78.20
2023-04-15T02:59:48.999Z,78.20
2023-04-15T03:02:16.424Z,77.90
2023-04-15T03:04:43.716Z,77.80
2023-04-15T03:07:12.207Z,78.20
2023-04-15T03:09:41.149Z,78.30
2023-04-15T03:12:08.374Z,78.60
2023-04-15T03:14:35.819Z,78.20
2023-04-15T03:17:03.042Z,78.00
2023-04-15T03:19:30.239Z,78.10
2023-04-15T03:21:58.432Z,78.30
2023-04-15T03:24:27.104Z,78.30
2023-04-15T03:26:57.712Z,78.30
2023-04-15T03:29:25.329Z,78.40
2023-04-15T03:31:53.359Z,78.30
2023-04-15T03:34:20.739Z,78.10
2023-04-15T03:36:48.063Z,78.30
2023-04-15T03:39:15.356Z,78.40
2023-04-15T03:41:43.899Z,78.30
2023-04-15T03:44:11.127Z,78.30
2023-04-15T03:46:38.397Z,78.30
2023-04-15T03:49:07.008Z,78.10
2023-04-15T03:51:34.216Z,77.90
2023-04-15T03:54:02.099Z,77.80
2023-04-15T03:56:29.285Z,78.00
2023-04-15T03:58:57.775Z,77.90
2023-04-15T04:01:25.040Z,78.10
2023-04-15T04:03:52.317Z,78.00
2023-04-15T04:06:20.099Z,77.90
2023-04-15T04:08:47.345Z,78.00
2023-04-15T04:11:14.535Z,77.90
2023-04-15T04:13:41.796Z,77.80
2023-04-15T04:16:10.423Z,77.60
2023-04-15T04:18:37.751Z,77.60
2023-04-15T04:21:05.368Z,77.80
2023-04-15T04:23:33.219Z,77.90
2023-04-15T04:26:00.403Z,77.70
2023-04-15T04:28:27.624Z,77.60
2023-04-15T04:30:54.853Z,77.50
2023-04-15T04:33:23.351Z,77.70
2023-04-15T04:35:50.529Z,78.00
2023-04-15T04:38:17.716Z,78.00
2023-04-15T04:40:44.933Z,78.20
2023-04-15T04:43:12.635Z,77.90
2023-04-15T04:45:39.955Z,78.00
2023-04-15T04:48:08.600Z,78.00
2023-04-15T04:50:37.165Z,78.20
2023-04-15T04:53:04.350Z,78.80
2023-04-15T04:55:31.981Z,78.60
2023-04-15T04:57:59.188Z,78.50
2023-04-15T05:00:26.393Z,78.50
2023-04-15T05:02:53.846Z,78.50
2023-04-15T05:05:21.419Z,78.40
2023-04-15T05:07:50.632Z,78.20
2023-04-15T05:10:18.287Z,78.40
2023-04-15T05:12:45.595Z,78.50
2023-04-15T05:15:12.857Z,78.60
2023-04-15T05:17:40.180Z,78.70
2023-04-15T05:20:08.567Z,78.80
2023-04-15T05:22:35.806Z,78.70
2023-04-15T05:25:05.146Z,78.70
2023-04-15T05:27:32.458Z,78.70
2023-04-15T05:29:59.725Z,78.80
2023-04-15T05:32:27.259Z,78.80
2023-04-15T05:34:54.496Z,79.10
2023-04-15T05:37:22.273Z,78.90
2023-04-15T05:39:49.742Z,78.70
2023-04-15T05:42:18.299Z,78.90
2023-04-15T05:44:45.940Z,78.80
2023-04-15T05:47:13.099Z,78.80
2023-04-15T05:49:40.791Z,78.90
2023-04-15T05:52:08.039Z,78.80
2023-04-15T05:54:35.442Z,78.80
2023-04-15T05:57:02.754Z,78.40
2023-04-15T05:59:31.645Z,78.50
2023-04-15T06:01:58.980Z,78.60
2023-04-15T06:04:26.437Z,78.40
2023-04-15T06:06:53.851Z,78.40
2023-04-15T06:09:21.058Z,78.30
2023-04-15T06:11:48.289Z,78.20
2023-04-15T06:14:15.679Z,78.10
2023-04-15T06:16:44.293Z,78.00
2023-04-15T06:19:12.315Z,77.90
2023-04-15T06:21:39.620Z,77.70
2023-04-15T06:24:07.161Z,77.90
2023-04-15T06:26:34.440Z,77.80
2023-04-15T06:29:01.820Z,77.80
2023-04-15T06:31:29.810Z,77.80
2023-04-15T06:33:58.329Z,77.70
2023-04-15T06:36:25.529Z,77.20
2023-04-15T06:38:52.690Z,77.40
2023-04-15T06:41:19.898Z,77.40
2023-04-15T06:43:47.223Z,77.40
2023-04-15T06:46:14.633Z,77.50
2023-04-15T06:48:41.835Z,77.20
2023-04-15T06:51:10.352Z,77.00
2023-04-15T06:53:41.022Z,76.90
2023-04-15T06:56:09.279Z,76.90
2023-04-15T06:58:36.499Z,76.80
2023-04-15T07:01:04.520Z,76.40
2023-04-15T07:03:32.867Z,76.20
2023-04-15T07:06:01.613Z,76.10
2023-04-15T07:08:30.480Z,75.90
2023-04-15T07:10:57.960Z,75.70
2023-04-15T07:13:25.389Z,76.40
2023-04-15T07:15:52.633Z,77.10
2023-04-15T07:18:19.804Z,76.30
2023-04-15T07:20:47.063Z,76.50
2023-04-15T07:23:14.355Z,75.80
2023-04-15T07:25:42.861Z,75.00
2023-04-15T07:28:10.037Z,75.00
2023-04-15T07:30:37.790Z,75.10
2023-04-15T07:33:05.125Z,74.20
2023-04-15T07:35:33.221Z,74.10
2023-04-15T07:38:02.367Z,74.20
2023-04-15T07:40:29.686Z,74.40
2023-04-15T07:42:58.482Z,74.40
2023-04-15T07:45:25.738Z,74.20
2023-04-15T07:47:52.975Z,74.30
2023-04-15T07:50:20.175Z,74.40
2023-04-15T07:52:48.872Z,74.20
2023-04-15T07:55:19.284Z,74.30
2023-04-15T07:57:47.383Z,74.30
2023-04-15T08:00:16.927Z,74.10
2023-04-15T08:02:44.435Z,74.20
2023-04-15T08:05:11.760Z,74.20
2023-04-15T08:07:39.706Z,74.30
2023-04-15T08:10:08.311Z,74.60
2023-04-15T08:12:35.706Z,74.70
2023-04-15T08:15:03.364Z,74.70
2023-04-15T08:17:31.976Z,74.70
2023-04-15T08:19:59.219Z,74.50
2023-04-15T08:22:26.438Z,74.20
2023-04-15T08:24:53.632Z,74.30
2023-04-15T08:27:20.806Z,74.40
2023-04-15T08:29:48.008Z,74.10
2023-04-15T08:32:15.302Z,74.30
2023-04-15T08:34:43.852Z,74.40
2023-04-15T08:37:12.746Z,74.30
2023-04-15T08:39:40.064Z,74.70
2023-04-15T08:42:11.993Z,75.10
2023-04-15T08:44:40.296Z,75.10
2023-04-15T08:47:09.042Z,75.20
2023-04-15T08:49:40.228Z,75.20
2023-04-15T08:52:09.426Z,75.00
2023-04-15T08:54:37.543Z,75.00
2023-04-15T08:57:05.099Z,75.40
2023-04-15T08:59:32.852Z,75.30
2023-04-15T09:02:00.157Z,75.30
2023-04-15T09:04:28.174Z,75.20
2023-04-15T09:06:55.546Z,75.30
2023-04-15T09:09:24.299Z,75.60
2023-04-15T09:11:51.605Z,75.90
2023-04-15T09:14:18.788Z,75.60
2023-04-15T09:16:59.782Z,75.70
2023-04-15T09:19:27.285Z,75.80
2023-04-15T09:21:58.813Z,75.70
2023-04-15T09:24:37.324Z,75.30
2023-04-15T09:27:04.872Z,75.40
2023-04-15T09:29:32.292Z,75.10
2023-04-15T09:32:10.072Z,75.20
2023-04-15T09:34:37.915Z,75.50
2023-04-15T09:37:07.390Z,75.40
2023-04-15T09:39:50.488Z,75.30
2023-04-15T09:42:24.199Z,75.30
2023-04-15T09:44:52.744Z,75.60
2023-04-15T09:47:37.886Z,75.70
2023-04-15T09:50:06.092Z,75.70
2023-04-15T09:52:33.446Z,76.00
2023-04-15T09:55:02.597Z,76.10
2023-04-15T09:57:35.404Z,75.90
2023-04-15T10:00:03.491Z,76.00
2023-04-15T10:02:34.186Z,76.00
2023-04-15T10:05:02.886Z,75.80
2023-04-15T10:07:30.782Z,75.70
2023-04-15T10:10:00.393Z,75.50
2023-04-15T10:12:31.126Z,75.50
2023-04-15T10:15:00.854Z,75.70
2023-04-15T10:17:31.237Z,75.90
2023-04-15T10:20:01.694Z,76.10
2023-04-15T10:22:29.371Z,76.40
2023-04-15T10:24:57.251Z,76.70
2023-04-15T10:27:24.756Z,76.90
2023-04-15T10:29:54.097Z,76.90
2023-04-15T10:32:22.492Z,76.60
2023-04-15T10:34:53.083Z,76.70
2023-04-15T10:37:22.597Z,76.80
2023-04-15T10:39:50.642Z,76.60
2023-04-15T10:42:20.146Z,76.80
2023-04-15T10:44:51.481Z,76.90
2023-04-15T10:47:21.642Z,76.60
2023-04-15T10:49:50.764Z,76.60
2023-04-15T10:52:23.716Z,76.50
2023-04-15T10:55:01.711Z,76.70
2023-04-15T10:57:35.233Z,76.70
2023-04-15T11:00:13.513Z,76.60
2023-04-15T11:02:45.129Z,76.20
2023-04-15T11:05:13.709Z,76.20
2023-04-15T11:07:48.566Z,76.20
2023-04-15T11:10:52.896Z,76.00
2023-04-15T11:13:22.711Z,76.00
2023-04-15T11:15:50.299Z,76.00
2023-04-15T11:18:20.237Z,75.90
2023-04-15T11:20:50.503Z,76.00
2023-04-15T11:23:19.275Z,76.00
2023-04-15T11:25:46.561Z,75.90
2023-04-15T11:28:14.212Z,76.10
2023-04-15T11:30:42.568Z,76.00
2023-04-15T11:33:12.139Z,76.10
2023-04-15T11:35:41.240Z,76.30
2023-04-15T11:38:11.208Z,76.30
2023-04-15T11:40:39.287Z,76.40
2023-04-15T11:43:07.863Z,76.10
2023-04-15T11:45:36.100Z,76.10
2023-04-15T11:48:08.231Z,76.10
2023-04-15T11:50:36.064Z,75.80
2023-04-15T11:53:08.331Z,75.80
2023-04-15T11:55:44.206Z,75.70
2023-04-15T11:58:15.112Z,75.70
2023-04-15T12:00:48.767Z,76.20
2023-04-15T12:03:22.337Z,76.50
2023-04-15T12:06:12.982Z,76.80
2023-04-15T12:09:01.176Z,76.40
2023-04-15T12:11:37.504Z,76.60
2023-04-15T12:14:07.378Z,76.40
2023-04-15T12:16:37.258Z,76.40
2023-04-15T12:19:18.331Z,76.70
2023-04-15T12:21:47.986Z,76.80
2023-04-15T12:24:20.927Z,77.10
2023-04-15T12:26:49.803Z,77.10
2023-04-15T12:29:17.580Z,76.90
2023-04-15T12:31:50.634Z,76.70
2023-04-15T12:34:18.678Z,77.20
2023-04-15T12:36:46.111Z,77.10
2023-04-15T12:39:13.403Z,77.30
2023-04-15T12:41:41.934Z,77.00
2023-04-15T12:44:09.211Z,76.80
2023-04-15T12:46:36.631Z,77.10
2023-04-15T12:49:04.785Z,76.70
2023-04-15T12:51:32.287Z,76.70
2023-04-15T12:53:59.691Z,76.80
2023-04-15T12:56:27.003Z,76.50
2023-04-15T12:58:55.572Z,76.20
2023-04-15T13:01:23.072Z,76.00
2023-04-15T13:03:51.081Z,75.80
2023-04-15T13:06:18.497Z,75.90
2023-04-15T13:08:57.288Z,75.80
2023-04-15T13:11:25.956Z,75.60
2023-04-15T13:13:53.264Z,76.00
2023-04-15T13:16:21.922Z,75.70
2023-04-15T13:18:49.200Z,75.90
2023-04-15T13:21:16.859Z,75.80
2023-04-15T13:23:44.258Z,75.80
2023-04-15T13:26:11.694Z,75.60
2023-04-15T13:28:39.126Z,75.50
2023-04-15T13:31:06.399Z,75.90
2023-04-15T13:33:35.266Z,75.80
2023-04-15T13:36:02.541Z,75.70
2023-04-15T13:38:29.721Z,75.90
2023-04-15T13:40:56.923Z,76.00
2023-04-15T13:43:24.111Z,76.20
2023-04-15T13:45:51.399Z,75.90
2023-04-15T13:48:18.658Z,75.70
2023-04-15T13:50:47.170Z,75.30
2023-04-15T13:53:14.356Z,75.20
2023-04-15T13:55:42.664Z,75.10
2023-04-15T13:58:10.194Z,75.00
2023-04-15T14:00:37.694Z,74.70
2023-04-15T14:03:05.284Z,74.80
2023-04-15T14:05:32.600Z,74.70
2023-04-15T14:08:01.256Z,75.00
2023-04-15T14:10:28.464Z,75.00
2023-04-15T14:12:55.641Z,74.60
2023-04-15T14:15:22.851Z,74.60
2023-04-15T14:17:50.226Z,75.00
2023-04-15T14:20:17.609Z,74.80
2023-04-15T14:22:44.829Z,75.00
2023-04-15T14:25:23.167Z,75.20
2023-04-15T14:27:57.950Z,75.40
2023-04-15T14:30:25.144Z,75.60
2023-04-15T14:32:52.321Z,75.50
2023-04-15T14:35:19.723Z,75.20
2023-04-15T14:37:46.909Z,75.60
2023-04-15T14:40:15.563Z,75.50
2023-04-15T14:42:42.744Z,75.70
2023-04-15T14:45:10.910Z,75.50
2023-04-15T14:47:38.303Z,75.60
2023-04-15T14:50:06.432Z,75.70
2023-04-15T14:52:38.606Z,75.80
2023-04-15T14:55:06.676Z,75.80
2023-04-15T14:57:35.200Z,75.90
2023-04-15T15:00:03.532Z,75.70
2023-04-15T15:02:39.090Z,75.70
2023-04-15T15:05:08.919Z,75.60
2023-04-15T15:07:37.144Z,75.70
2023-04-15T15:10:06.025Z,75.90
2023-04-15T15:12:35.125Z,75.90
2023-04-15T15:15:06.873Z,76.00
2023-04-15T15:17:39.891Z,76.10
2023-04-15T15:20:08.117Z,75.90
2023-04-15T15:22:35.311Z,75.80
2023-04-15T15:25:02.601Z,75.50
2023-04-15T15:27:29.837Z,75.80
2023-04-15T15:29:58.994Z,75.90
2023-04-15T15:32:26.456Z,75.90
2023-04-15T15:34:53.667Z,75.70
2023-04-15T15:37:20.985Z,75.80
2023-04-15T15:39:48.413Z,75.70
2023-04-15T15:42:15.697Z,75.80
2023-04-15T15:44:42.878Z,75.90
2023-04-15T15:47:11.763Z,76.00
2023-04-15T15:49:40.057Z,76.10
2023-04-15T15:52:07.410Z,76.30
2023-04-15T15:54:35.249Z,76.20
2023-04-15T15:57:02.414Z,76.40
2023-04-15T15:59:29.904Z,76.60
2023-04-15T16:01:57.245Z,76.50
2023-04-15T16:04:26.154Z,76.40
2023-04-15T16:06:53.777Z,76.30
2023-04-15T16:09:20.975Z,76.50
2023-04-15T16:11:48.213Z,76.50
2023-04-15T16:14:15.576Z,76.60
2023-04-15T16:16:42.883Z,76.70
2023-04-15T16:19:10.408Z,76.90
2023-04-15T16:21:38.949Z,76.90
2023-04-15T16:24:06.781Z,76.70
2023-04-15T16:26:33.984Z,76.90
2023-04-15T16:29:01.903Z,76.90
2023-04-15T16:31:29.408Z,76.90
2023-04-15T16:33:56.918Z,77.00
2023-04-15T16:36:24.108Z,76.90
2023-04-15T16:38:53.170Z,76.70
2023-04-15T16:41:20.804Z,76.60
2023-04-15T16:43:47.989Z,76.90
2023-04-15T16:46:15.427Z,77.30
2023-04-15T16:48:42.725Z,77.40
2023-04-15T16:51:09.946Z,77.30
2023-04-15T16:53:37.123Z,77.10
2023-04-15T16:56:06.182Z,77.10
2023-04-15T16:58:33.368Z,77.00
2023-04-15T17:01:01.132Z,77.30
2023-04-15T17:03:28.469Z,77.20
2023-04-15T17:05:55.773Z,76.80
2023-04-15T17:08:22.974Z,77.10
2023-04-15T17:10:51.639Z,77.30
2023-04-15T17:13:20.440Z,77.20
2023-04-15T17:15:47.765Z,77.20
2023-04-15T17:18:15.013Z,77.10
2023-04-15T17:20:42.344Z,77.00
2023-04-15T17:23:09.579Z,76.60
2023-04-15T17:25:37.582Z,76.70
2023-04-15T17:28:05.006Z,76.70
2023-04-15T17:30:33.886Z,76.50
2023-04-15T17:33:01.603Z,76.40
2023-04-15T17:35:28.899Z,76.60
2023-04-15T17:37:56.096Z,76.90
2023-04-15T17:40:23.346Z,76.70
2023-04-15T17:42:50.659Z,77.00
2023-04-15T17:45:18.511Z,76.90
2023-04-15T17:47:48.142Z,77.00
2023-04-15T17:50:15.505Z,77.10
2023-04-15T17:52:43.635Z,77.10
2023-04-15T17:55:10.838Z,77.20
2023-04-15T17:57:38.059Z,77.10
2023-04-15T18:00:06.914Z,76.70
2023-04-15T18:02:40.230Z,76.60
2023-04-15T18:05:09.373Z,76.90
2023-04-15T18:07:36.634Z,76.90
2023-04-15T18:10:04.563Z,77.10
2023-04-15T18:12:31.777Z,77.00
2023-04-15T18:14:59.173Z,77.10
2023-04-15T18:17:27.174Z,77.30
2023-04-15T18:19:54.435Z,77.50
2023-04-15T18:22:22.931Z,77.60
2023-04-15T18:24:50.295Z,77.10
2023-04-15T18:27:17.945Z,77.20
2023-04-15T18:29:45.160Z,77.70
2023-04-15T18:32:12.443Z,77.50
2023-04-15T18:34:39.838Z,77.40
2023-04-15T18:37:07.135Z,77.60
2023-04-15T18:39:35.679Z,77.40
2023-04-15T18:42:02.905Z,77.40
2023-04-15T18:44:30.381Z,77.30
2023-04-15T18:46:57.647Z,77.40
2023-04-15T18:49:27.049Z,77.30
2023-04-15T18:51:54.257Z,77.20
2023-04-15T18:54:21.589Z,77.50
2023-04-15T18:56:50.823Z,77.50
2023-04-15T18:59:28.114Z,77.70
2023-04-15T19:01:58.623Z,77.80
2023-04-15T19:04:26.249Z,77.80
2023-04-15T19:06:53.543Z,77.90
2023-04-15T19:09:20.942Z,78.40
2023-04-15T19:11:48.173Z,78.20
2023-04-15T19:14:17.028Z,78.20
2023-04-15T19:16:44.338Z,78.40
2023-04-15T19:19:14.357Z,78.70
2023-04-15T19:21:41.871Z,78.40
2023-04-15T19:24:09.785Z,78.40
2023-04-15T19:26:37.157Z,78.90
2023-04-15T19:29:04.643Z,78.70
2023-04-15T19:31:33.371Z,78.70
2023-04-15T19:34:00.640Z,78.80
2023-04-15T19:36:28.453Z,78.90
2023-04-15T19:38:56.755Z,78.90
2023-04-15T19:41:24.116Z,78.90
2023-04-15T19:43:51.356Z,79.00
2023-04-15T19:46:18.772Z,78.90
2023-04-15T19:48:47.455Z,78.70
2023-04-15T19:51:14.982Z,79.00
2023-04-15T19:53:42.206Z,78.80
2023-04-15T19:56:09.413Z,78.70
2023-04-15T19:58:36.711Z,78.70
2023-04-15T20:01:04.026Z,78.70
2023-04-15T20:03:31.439Z,78.70
2023-04-15T20:06:00.047Z,78.80
2023-04-15T20:08:27.288Z,79.20
2023-04-15T20:10:54.613Z,79.30
2023-04-15T20:13:21.804Z,79.20
2023-04-15T20:15:49.248Z,79.30
2023-04-15T20:18:16.465Z,79.40
2023-04-15T20:20:43.764Z,79.30
2023-04-15T20:23:12.271Z,79.20
2023-04-15T20:25:39.664Z,79.00
2023-04-15T20:28:06.845Z,79.00
2023-04-15T20:30:34.141Z,79.00
2023-04-15T20:33:01.463Z,79.00
2023-04-15T20:35:30.831Z,79.10
2023-04-15T20:37:58.130Z,79.10
2023-04-15T20:40:26.789Z,79.00
2023-04-15T20:42:54.033Z,79.10
2023-04-15T20:45:21.246Z,79.30
2023-04-15T20:47:48.942Z,79.30
2023-04-15T20:50:16.254Z,79.40
2023-04-15T20:52:43.471Z,79.40
2023-04-15T20:55:10.747Z,79.20
2023-04-15T20:57:39.280Z,79.10
2023-04-15T21:00:09.392Z,79.10
2023-04-15T21:02:36.855Z,79.30
2023-04-15T21:05:04.658Z,79.10
2023-04-15T21:07:31.870Z,79.10
2023-04-15T21:09:59.291Z,79.00
2023-04-15T21:12:26.497Z,79.00
2023-04-15T21:14:55.393Z,79.10
2023-04-15T21:17:22.736Z,79.10
2023-04-15T21:19:50.017Z,79.00
2023-04-15T21:22:17.250Z,79.10
2023-04-15T21:24:44.450Z,78.90
2023-04-15T21:27:11.719Z,78.80
2023-04-15T21:29:40.236Z,79.00
2023-04-15T21:32:08.884Z,79.40
2023-04-15T21:34:36.206Z,79.40
2023-04-15T21:37:03.441Z,79.30
2023-04-15T21:39:30.877Z,79.30
2023-04-15T21:41:59.382Z,79.10
2023-04-15T21:44:26.622Z,79.20
2023-04-15T21:46:53.918Z,79.10
2023-04-15T21:49:24.874Z,79.20
2023-04-15T21:51:52.684Z,79.20
2023-04-15T21:54:20.014Z,79.20
2023-04-15T21:56:49.654Z,79.30
2023-04-15T21:59:16.912Z,79.20
2023-04-15T22:01:44.298Z,79.20
2023-04-15T22:04:11.724Z,79.50
2023-04-15T22:06:40.448Z,79.60
2023-04-15T22:09:13.989Z,79.70
2023-04-15T22:11:41.812Z,79.60
2023-04-15T22:14:09.276Z,79.40
2023-04-15T22:16:36.528Z,79.20
2023-04-15T22:19:04.054Z,79.20
2023-04-15T22:21:31.796Z,79.30
2023-04-15T22:24:33.800Z,79.20
2023-04-15T22:26:47.514Z,79.00
2023-04-15T22:29:14.760Z,79.00
2023-04-15T22:31:42.335Z,78.80
2023-04-15T22:34:09.614Z,79.10
2023-04-15T22:36:36.815Z,79.30
2023-04-15T22:39:05.856Z,79.20
2023-04-15T22:41:33.487Z,79.20
2023-04-15T22:44:00.725Z,79.00
2023-04-15T22:46:28.065Z,78.80
2023-04-15T22:48:55.680Z,79.00
2023-04-15T22:51:23.820Z,79.30
2023-04-15T22:53:51.107Z,79.40
2023-04-15T22:56:23.392Z,79.30
2023-04-15T22:58:51.026Z,79.30
2023-04-15T23:01:18.708Z,79.40
2023-04-15T23:03:56.187Z,79.20
2023-04-15T23:06:25.289Z,79.20
2023-04-15T23:08:53.608Z,79.20
2023-04-15T23:11:22.396Z,79.20
2023-04-15T23:13:50.597Z,79.50
2023-04-15T23:16:17.997Z,79.70
2023-04-15T23:18:45.377Z,79.60
2023-04-15T23:21:12.552Z,79.40
2023-04-15T23:23:39.832Z,79.10
2023-04-15T23:26:07.019Z,78.80
2023-04-15T23:28:35.509Z,78.70
2023-04-15T23:31:02.729Z,78.40
2023-04-15T23:33:29.939Z,78.10
2023-04-15T23:35:57.306Z,78.50
2023-04-15T23:38:24.482Z,78.60
2023-04-15T23:40:52.128Z,78.50
2023-04-15T23:43:19.379Z,78.50
2023-04-15T23:45:48.100Z,78.40
2023-04-15T23:48:15.301Z,78.40
2023-04-15T23:50:42.531Z,78.60
2023-04-15T23:53:09.807Z,78.70
2023-04-15T23:55:37.029Z,78.70
2023-04-15T23:58:04.244Z,78.70
